sensor_id;sensor_type;location;lat;lon;timestamp;P1;durP1;ratioP1;P2;durP2;ratioP2
12896;SDS011;6516;35.028;32.372;2022-09-09T00:01:47;6.55;;;3.20;;
12896;SDS011;6516;35.028;32.372;2022-09-09T00:04:25;6.50;;;2.80;;
12896;SDS011;6516;35.028;32.372;2022-09-09T00:06:57;7.47;;;3.30;;
12896;SDS011;6516;35.028;32.372;2022-09-09T00:09:35;6.67;;;2.93;;
12896;SDS011;6516;35.028;32.372;2022-09-09T00:12:14;5.45;;;3.10;;
12896;SDS011;6516;35.028;32.372;2022-09-09T00:14:50;6.78;;;3.13;;
12896;SDS011;6516;35.028;32.372;2022-09-09T00:17:25;6.57;;;3.05;;
12896;SDS011;6516;35.028;32.372;2022-09-09T00:20:03;7.50;;;3.17;;
12896;SDS011;6516;35.028;32.372;2022-09-09T00:22:40;4.80;;;2.90;;
12896;SDS011;6516;35.028;32.372;2022-09-09T00:25:16;8.30;;;3.28;;
12896;SDS011;6516;35.028;32.372;2022-09-09T00:27:53;5.03;;;3.10;;
12896;SDS011;6516;35.028;32.372;2022-09-09T00:30:23;5.63;;;3.10;;
12896;SDS011;6516;35.028;32.372;2022-09-09T00:32:53;5.10;;;2.85;;
12896;SDS011;6516;35.028;32.372;2022-09-09T00:35:24;5.80;;;3.57;;
12896;SDS011;6516;35.028;32.372;2022-09-09T00:37:56;5.95;;;3.20;;
12896;SDS011;6516;35.028;32.372;2022-09-09T00:40:31;5.53;;;3.10;;
12896;SDS011;6516;35.028;32.372;2022-09-09T00:43:08;11.38;;;3.60;;
12896;SDS011;6516;35.028;32.372;2022-09-09T00:46:05;8.63;;;3.13;;
12896;SDS011;6516;35.028;32.372;2022-09-09T00:48:51;6.53;;;3.40;;
12896;SDS011;6516;35.028;32.372;2022-09-09T00:51:29;5.45;;;3.25;;
12896;SDS011;6516;35.028;32.372;2022-09-09T00:54:23;5.97;;;3.35;;
12896;SDS011;6516;35.028;32.372;2022-09-09T00:57:07;5.88;;;3.30;;
12896;SDS011;6516;35.028;32.372;2022-09-09T00:59:51;5.38;;;3.10;;
12896;SDS011;6516;35.028;32.372;2022-09-09T01:02:28;5.97;;;3.13;;
12896;SDS011;6516;35.028;32.372;2022-09-09T01:05:05;4.97;;;3.10;;
12896;SDS011;6516;35.028;32.372;2022-09-09T01:07:40;5.53;;;3.20;;
12896;SDS011;6516;35.028;32.372;2022-09-09T01:10:17;5.30;;;3.28;;
12896;SDS011;6516;35.028;32.372;2022-09-09T01:12:58;5.70;;;3.10;;
12896;SDS011;6516;35.028;32.372;2022-09-09T01:15:32;6.80;;;3.50;;
12896;SDS011;6516;35.028;32.372;2022-09-09T01:18:03;6.45;;;3.30;;
12896;SDS011;6516;35.028;32.372;2022-09-09T01:20:37;6.10;;;3.65;;
12896;SDS011;6516;35.028;32.372;2022-09-09T01:26:14;5.72;;;3.45;;
12896;SDS011;6516;35.028;32.372;2022-09-09T01:28:48;7.50;;;3.27;;
12896;SDS011;6516;35.028;32.372;2022-09-09T01:31:20;7.00;;;3.35;;
12896;SDS011;6516;35.028;32.372;2022-09-09T01:33:53;8.00;;;3.60;;
12896;SDS011;6516;35.028;32.372;2022-09-09T01:36:23;4.97;;;3.13;;
12896;SDS011;6516;35.028;32.372;2022-09-09T01:38:56;5.68;;;3.42;;
12896;SDS011;6516;35.028;32.372;2022-09-09T01:41:26;5.17;;;3.13;;
12896;SDS011;6516;35.028;32.372;2022-09-09T01:43:54;6.10;;;3.30;;
12896;SDS011;6516;35.028;32.372;2022-09-09T01:46:24;6.22;;;3.60;;
12896;SDS011;6516;35.028;32.372;2022-09-09T01:48:52;5.90;;;3.20;;
12896;SDS011;6516;35.028;32.372;2022-09-09T01:51:21;7.38;;;3.60;;
12896;SDS011;6516;35.028;32.372;2022-09-09T01:53:50;6.60;;;3.20;;
12896;SDS011;6516;35.028;32.372;2022-09-09T01:56:21;5.30;;;3.28;;
12896;SDS011;6516;35.028;32.372;2022-09-09T01:59:09;5.95;;;3.60;;
12896;SDS011;6516;35.028;32.372;2022-09-09T02:01:53;5.40;;;3.30;;
12896;SDS011;6516;35.028;32.372;2022-09-09T02:04:39;6.15;;;3.70;;
12896;SDS011;6516;35.028;32.372;2022-09-09T02:07:19;6.50;;;3.40;;
12896;SDS011;6516;35.028;32.372;2022-09-09T02:10:01;6.30;;;3.42;;
12896;SDS011;6516;35.028;32.372;2022-09-09T02:12:40;6.18;;;3.38;;
12896;SDS011;6516;35.028;32.372;2022-09-09T02:15:14;7.00;;;3.78;;
12896;SDS011;6516;35.028;32.372;2022-09-09T02:17:53;6.07;;;3.58;;
12896;SDS011;6516;35.028;32.372;2022-09-09T02:20:24;7.33;;;3.43;;
12896;SDS011;6516;35.028;32.372;2022-09-09T02:22:54;8.57;;;3.45;;
12896;SDS011;6516;35.028;32.372;2022-09-09T02:25:24;8.13;;;3.40;;
12896;SDS011;6516;35.028;32.372;2022-09-09T02:27:57;7.28;;;3.20;;
12896;SDS011;6516;35.028;32.372;2022-09-09T02:30:26;6.45;;;3.10;;
12896;SDS011;6516;35.028;32.372;2022-09-09T02:32:56;5.87;;;3.00;;
12896;SDS011;6516;35.028;32.372;2022-09-09T02:35:27;7.25;;;3.15;;
12896;SDS011;6516;35.028;32.372;2022-09-09T02:37:56;6.50;;;3.20;;
12896;SDS011;6516;35.028;32.372;2022-09-09T02:40:29;5.15;;;2.92;;
12896;SDS011;6516;35.028;32.372;2022-09-09T02:42:58;7.10;;;3.10;;
12896;SDS011;6516;35.028;32.372;2022-09-09T02:45:27;6.27;;;3.00;;
12896;SDS011;6516;35.028;32.372;2022-09-09T02:48:04;7.30;;;3.20;;
12896;SDS011;6516;35.028;32.372;2022-09-09T02:50:42;6.65;;;3.10;;
12896;SDS011;6516;35.028;32.372;2022-09-09T02:53:22;7.80;;;3.30;;
12896;SDS011;6516;35.028;32.372;2022-09-09T02:55:59;7.22;;;3.25;;
12896;SDS011;6516;35.028;32.372;2022-09-09T02:58:35;7.80;;;2.90;;
12896;SDS011;6516;35.028;32.372;2022-09-09T03:01:04;6.55;;;3.33;;
12896;SDS011;6516;35.028;32.372;2022-09-09T03:03:34;5.82;;;3.10;;
12896;SDS011;6516;35.028;32.372;2022-09-09T03:06:02;6.57;;;3.30;;
12896;SDS011;6516;35.028;32.372;2022-09-09T03:08:30;8.10;;;3.28;;
12896;SDS011;6516;35.028;32.372;2022-09-09T03:10:58;6.20;;;3.27;;
12896;SDS011;6516;35.028;32.372;2022-09-09T03:13:27;7.38;;;3.03;;
12896;SDS011;6516;35.028;32.372;2022-09-09T03:15:57;7.07;;;3.22;;
12896;SDS011;6516;35.028;32.372;2022-09-09T03:18:25;7.22;;;3.30;;
12896;SDS011;6516;35.028;32.372;2022-09-09T03:20:53;7.68;;;3.25;;
12896;SDS011;6516;35.028;32.372;2022-09-09T03:23:21;6.23;;;3.10;;
12896;SDS011;6516;35.028;32.372;2022-09-09T03:25:49;7.65;;;3.50;;
12896;SDS011;6516;35.028;32.372;2022-09-09T03:28:17;5.65;;;3.00;;
12896;SDS011;6516;35.028;32.372;2022-09-09T03:30:45;13.13;;;3.63;;
12896;SDS011;6516;35.028;32.372;2022-09-09T03:33:15;6.18;;;3.20;;
12896;SDS011;6516;35.028;32.372;2022-09-09T03:35:44;6.63;;;3.23;;
12896;SDS011;6516;35.028;32.372;2022-09-09T03:38:14;7.50;;;3.20;;
12896;SDS011;6516;35.028;32.372;2022-09-09T03:40:48;7.18;;;3.42;;
12896;SDS011;6516;35.028;32.372;2022-09-09T03:43:20;11.52;;;3.30;;
12896;SDS011;6516;35.028;32.372;2022-09-09T03:45:48;12.27;;;3.60;;
12896;SDS011;6516;35.028;32.372;2022-09-09T03:48:18;5.50;;;3.50;;
12896;SDS011;6516;35.028;32.372;2022-09-09T03:50:46;6.22;;;3.40;;
12896;SDS011;6516;35.028;32.372;2022-09-09T03:53:15;6.90;;;3.40;;
12896;SDS011;6516;35.028;32.372;2022-09-09T03:55:45;6.45;;;3.40;;
12896;SDS011;6516;35.028;32.372;2022-09-09T03:58:13;6.78;;;3.40;;
12896;SDS011;6516;35.028;32.372;2022-09-09T04:00:44;8.93;;;3.27;;
12896;SDS011;6516;35.028;32.372;2022-09-09T04:03:25;8.80;;;3.30;;
12896;SDS011;6516;35.028;32.372;2022-09-09T04:05:58;7.95;;;3.40;;
12896;SDS011;6516;35.028;32.372;2022-09-09T04:08:28;6.07;;;3.50;;
12896;SDS011;6516;35.028;32.372;2022-09-09T04:10:57;6.07;;;3.45;;
12896;SDS011;6516;35.028;32.372;2022-09-09T04:13:26;7.93;;;3.23;;
12896;SDS011;6516;35.028;32.372;2022-09-09T04:15:55;6.90;;;2.90;;
12896;SDS011;6516;35.028;32.372;2022-09-09T04:18:25;5.47;;;3.03;;
12896;SDS011;6516;35.028;32.372;2022-09-09T04:20:54;5.53;;;3.00;;
12896;SDS011;6516;35.028;32.372;2022-09-09T04:23:23;7.70;;;3.42;;
12896;SDS011;6516;35.028;32.372;2022-09-09T04:25:53;8.50;;;3.37;;
12896;SDS011;6516;35.028;32.372;2022-09-09T04:28:22;6.65;;;2.90;;
12896;SDS011;6516;35.028;32.372;2022-09-09T04:30:52;5.70;;;2.97;;
12896;SDS011;6516;35.028;32.372;2022-09-09T04:33:20;8.32;;;3.05;;
12896;SDS011;6516;35.028;32.372;2022-09-09T04:35:49;5.43;;;2.90;;
12896;SDS011;6516;35.028;32.372;2022-09-09T04:38:19;4.73;;;2.60;;
12896;SDS011;6516;35.028;32.372;2022-09-09T04:40:48;5.93;;;2.90;;
12896;SDS011;6516;35.028;32.372;2022-09-09T04:43:17;6.32;;;2.75;;
12896;SDS011;6516;35.028;32.372;2022-09-09T04:45:48;4.90;;;2.72;;
12896;SDS011;6516;35.028;32.372;2022-09-09T04:48:17;5.53;;;2.63;;
12896;SDS011;6516;35.028;32.372;2022-09-09T04:50:54;4.60;;;2.50;;
12896;SDS011;6516;35.028;32.372;2022-09-09T04:53:23;5.15;;;2.70;;
12896;SDS011;6516;35.028;32.372;2022-09-09T04:55:53;4.88;;;2.60;;
12896;SDS011;6516;35.028;32.372;2022-09-09T04:58:29;4.55;;;2.30;;
12896;SDS011;6516;35.028;32.372;2022-09-09T05:01:03;5.85;;;2.70;;
12896;SDS011;6516;35.028;32.372;2022-09-09T05:03:32;6.97;;;2.60;;
12896;SDS011;6516;35.028;32.372;2022-09-09T05:06:08;5.90;;;2.47;;
12896;SDS011;6516;35.028;32.372;2022-09-09T05:08:38;5.07;;;2.50;;
12896;SDS011;6516;35.028;32.372;2022-09-09T05:11:13;4.53;;;2.10;;
12896;SDS011;6516;35.028;32.372;2022-09-09T05:13:42;5.47;;;2.50;;
12896;SDS011;6516;35.028;32.372;2022-09-09T05:16:10;6.07;;;2.50;;
12896;SDS011;6516;35.028;32.372;2022-09-09T05:18:38;8.40;;;2.67;;
12896;SDS011;6516;35.028;32.372;2022-09-09T05:21:09;6.18;;;2.30;;
12896;SDS011;6516;35.028;32.372;2022-09-09T05:23:37;5.75;;;2.40;;
12896;SDS011;6516;35.028;32.372;2022-09-09T05:26:05;6.55;;;2.35;;
12896;SDS011;6516;35.028;32.372;2022-09-09T05:28:36;4.93;;;2.30;;
12896;SDS011;6516;35.028;32.372;2022-09-09T05:31:05;5.50;;;2.30;;
12896;SDS011;6516;35.028;32.372;2022-09-09T05:33:34;5.53;;;2.30;;
12896;SDS011;6516;35.028;32.372;2022-09-09T05:36:04;5.20;;;2.00;;
12896;SDS011;6516;35.028;32.372;2022-09-09T05:38:35;8.25;;;2.20;;
12896;SDS011;6516;35.028;32.372;2022-09-09T05:41:03;5.27;;;2.30;;
12896;SDS011;6516;35.028;32.372;2022-09-09T05:43:31;5.63;;;2.15;;
12896;SDS011;6516;35.028;32.372;2022-09-09T05:46:01;5.10;;;2.35;;
12896;SDS011;6516;35.028;32.372;2022-09-09T05:48:32;5.65;;;1.98;;
12896;SDS011;6516;35.028;32.372;2022-09-09T05:51:03;6.22;;;2.20;;
12896;SDS011;6516;35.028;32.372;2022-09-09T05:53:32;5.23;;;2.27;;
12896;SDS011;6516;35.028;32.372;2022-09-09T05:56:02;5.63;;;2.50;;
12896;SDS011;6516;35.028;32.372;2022-09-09T05:58:31;4.05;;;2.10;;
12896;SDS011;6516;35.028;32.372;2022-09-09T06:01:01;3.95;;;2.08;;
12896;SDS011;6516;35.028;32.372;2022-09-09T06:03:31;5.10;;;2.05;;
12896;SDS011;6516;35.028;32.372;2022-09-09T06:05:59;6.07;;;2.10;;
12896;SDS011;6516;35.028;32.372;2022-09-09T06:08:30;5.05;;;1.88;;
12896;SDS011;6516;35.028;32.372;2022-09-09T06:11:02;4.55;;;2.08;;
12896;SDS011;6516;35.028;32.372;2022-09-09T06:13:31;5.50;;;2.10;;
12896;SDS011;6516;35.028;32.372;2022-09-09T06:16:00;4.97;;;2.10;;
12896;SDS011;6516;35.028;32.372;2022-09-09T06:18:29;3.90;;;1.87;;
12896;SDS011;6516;35.028;32.372;2022-09-09T06:20:57;7.25;;;2.10;;
12896;SDS011;6516;35.028;32.372;2022-09-09T06:23:29;5.00;;;2.10;;
12896;SDS011;6516;35.028;32.372;2022-09-09T06:26:06;7.30;;;2.17;;
12896;SDS011;6516;35.028;32.372;2022-09-09T06:28:36;5.63;;;2.33;;
12896;SDS011;6516;35.028;32.372;2022-09-09T06:31:05;6.63;;;2.10;;
12896;SDS011;6516;35.028;32.372;2022-09-09T06:33:35;7.35;;;2.25;;
12896;SDS011;6516;35.028;32.372;2022-09-09T06:36:06;5.60;;;2.05;;
12896;SDS011;6516;35.028;32.372;2022-09-09T06:38:38;7.25;;;2.22;;
12896;SDS011;6516;35.028;32.372;2022-09-09T06:41:07;5.28;;;2.03;;
12896;SDS011;6516;35.028;32.372;2022-09-09T06:43:36;5.33;;;2.10;;
12896;SDS011;6516;35.028;32.372;2022-09-09T06:46:04;7.43;;;2.05;;
12896;SDS011;6516;35.028;32.372;2022-09-09T06:48:35;6.00;;;1.98;;
12896;SDS011;6516;35.028;32.372;2022-09-09T06:51:03;4.63;;;2.00;;
12896;SDS011;6516;35.028;32.372;2022-09-09T06:53:34;5.15;;;2.00;;
12896;SDS011;6516;35.028;32.372;2022-09-09T06:56:13;5.17;;;2.47;;
12896;SDS011;6516;35.028;32.372;2022-09-09T06:58:48;5.35;;;2.08;;
12896;SDS011;6516;35.028;32.372;2022-09-09T07:01:20;4.05;;;2.00;;
12896;SDS011;6516;35.028;32.372;2022-09-09T07:03:50;4.03;;;2.10;;
12896;SDS011;6516;35.028;32.372;2022-09-09T07:06:20;5.32;;;2.25;;
12896;SDS011;6516;35.028;32.372;2022-09-09T07:08:50;5.50;;;2.00;;
12896;SDS011;6516;35.028;32.372;2022-09-09T07:11:23;5.57;;;2.15;;
12896;SDS011;6516;35.028;32.372;2022-09-09T07:13:52;5.85;;;2.33;;
12896;SDS011;6516;35.028;32.372;2022-09-09T07:16:20;3.85;;;1.85;;
12896;SDS011;6516;35.028;32.372;2022-09-09T07:18:50;6.65;;;2.20;;
12896;SDS011;6516;35.028;32.372;2022-09-09T07:21:18;4.40;;;2.10;;
12896;SDS011;6516;35.028;32.372;2022-09-09T07:23:46;4.60;;;2.10;;
12896;SDS011;6516;35.028;32.372;2022-09-09T07:26:17;7.15;;;2.33;;
12896;SDS011;6516;35.028;32.372;2022-09-09T07:28:48;8.23;;;2.20;;
12896;SDS011;6516;35.028;32.372;2022-09-09T07:31:17;6.32;;;2.40;;
12896;SDS011;6516;35.028;32.372;2022-09-09T07:33:47;5.87;;;2.10;;
12896;SDS011;6516;35.028;32.372;2022-09-09T07:36:15;6.32;;;1.90;;
12896;SDS011;6516;35.028;32.372;2022-09-09T07:38:47;4.55;;;2.00;;
12896;SDS011;6516;35.028;32.372;2022-09-09T07:41:18;5.97;;;2.00;;
12896;SDS011;6516;35.028;32.372;2022-09-09T07:43:49;6.05;;;1.83;;
12896;SDS011;6516;35.028;32.372;2022-09-09T07:46:19;5.67;;;2.00;;
12896;SDS011;6516;35.028;32.372;2022-09-09T07:48:49;7.68;;;2.13;;
12896;SDS011;6516;35.028;32.372;2022-09-09T07:51:19;6.97;;;1.92;;
12896;SDS011;6516;35.028;32.372;2022-09-09T07:53:51;6.22;;;2.00;;
12896;SDS011;6516;35.028;32.372;2022-09-09T07:56:22;4.43;;;1.90;;
12896;SDS011;6516;35.028;32.372;2022-09-09T07:58:53;5.63;;;2.17;;
12896;SDS011;6516;35.028;32.372;2022-09-09T08:01:24;8.38;;;2.03;;
12896;SDS011;6516;35.028;32.372;2022-09-09T08:03:56;11.48;;;2.13;;
12896;SDS011;6516;35.028;32.372;2022-09-09T08:06:26;5.20;;;2.10;;
12896;SDS011;6516;35.028;32.372;2022-09-09T08:08:55;4.65;;;2.00;;
12896;SDS011;6516;35.028;32.372;2022-09-09T08:11:23;4.97;;;1.83;;
12896;SDS011;6516;35.028;32.372;2022-09-09T08:13:55;8.00;;;1.95;;
12896;SDS011;6516;35.028;32.372;2022-09-09T08:16:24;4.68;;;2.03;;
12896;SDS011;6516;35.028;32.372;2022-09-09T08:18:55;5.68;;;1.98;;
12896;SDS011;6516;35.028;32.372;2022-09-09T08:21:24;4.78;;;1.90;;
12896;SDS011;6516;35.028;32.372;2022-09-09T08:23:54;4.67;;;1.90;;
12896;SDS011;6516;35.028;32.372;2022-09-09T08:26:24;5.10;;;1.92;;
12896;SDS011;6516;35.028;32.372;2022-09-09T08:28:55;4.90;;;1.70;;
12896;SDS011;6516;35.028;32.372;2022-09-09T08:31:25;5.63;;;1.98;;
12896;SDS011;6516;35.028;32.372;2022-09-09T08:33:55;7.38;;;2.13;;
12896;SDS011;6516;35.028;32.372;2022-09-09T08:36:25;5.30;;;2.27;;
12896;SDS011;6516;35.028;32.372;2022-09-09T08:38:55;7.05;;;2.10;;
12896;SDS011;6516;35.028;32.372;2022-09-09T08:41:39;4.95;;;2.08;;
12896;SDS011;6516;35.028;32.372;2022-09-09T08:44:45;7.25;;;2.20;;
12896;SDS011;6516;35.028;32.372;2022-09-09T08:47:40;5.65;;;1.90;;
12896;SDS011;6516;35.028;32.372;2022-09-09T08:50:19;5.80;;;1.93;;
12896;SDS011;6516;35.028;32.372;2022-09-09T08:52:55;5.45;;;1.90;;
12896;SDS011;6516;35.028;32.372;2022-09-09T08:55:32;5.13;;;2.00;;
12896;SDS011;6516;35.028;32.372;2022-09-09T08:58:11;5.20;;;2.17;;
12896;SDS011;6516;35.028;32.372;2022-09-09T09:00:50;5.68;;;1.98;;
12896;SDS011;6516;35.028;32.372;2022-09-09T09:03:32;6.43;;;2.27;;
12896;SDS011;6516;35.028;32.372;2022-09-09T09:06:10;6.90;;;2.30;;
12896;SDS011;6516;35.028;32.372;2022-09-09T09:08:54;7.22;;;2.42;;
12896;SDS011;6516;35.028;32.372;2022-09-09T09:11:34;7.65;;;2.35;;
12896;SDS011;6516;35.028;32.372;2022-09-09T09:14:03;5.45;;;2.22;;
12896;SDS011;6516;35.028;32.372;2022-09-09T09:16:40;6.67;;;2.00;;
12896;SDS011;6516;35.028;32.372;2022-09-09T09:19:15;5.05;;;1.90;;
12896;SDS011;6516;35.028;32.372;2022-09-09T09:21:48;5.28;;;2.28;;
12896;SDS011;6516;35.028;32.372;2022-09-09T09:24:22;5.03;;;2.10;;
12896;SDS011;6516;35.028;32.372;2022-09-09T09:26:57;5.60;;;2.15;;
12896;SDS011;6516;35.028;32.372;2022-09-09T09:29:27;4.83;;;2.23;;
12896;SDS011;6516;35.028;32.372;2022-09-09T09:31:56;7.18;;;2.30;;
12896;SDS011;6516;35.028;32.372;2022-09-09T09:34:29;6.32;;;2.33;;
12896;SDS011;6516;35.028;32.372;2022-09-09T09:36:57;8.15;;;2.60;;
12896;SDS011;6516;35.028;32.372;2022-09-09T09:39:28;5.85;;;2.33;;
12896;SDS011;6516;35.028;32.372;2022-09-09T09:42:07;6.03;;;2.20;;
12896;SDS011;6516;35.028;32.372;2022-09-09T09:44:39;4.30;;;2.03;;
12896;SDS011;6516;35.028;32.372;2022-09-09T09:47:11;9.35;;;2.50;;
12896;SDS011;6516;35.028;32.372;2022-09-09T09:49:50;5.72;;;2.17;;
12896;SDS011;6516;35.028;32.372;2022-09-09T09:52:20;5.63;;;2.20;;
12896;SDS011;6516;35.028;32.372;2022-09-09T09:54:50;5.53;;;2.20;;
12896;SDS011;6516;35.028;32.372;2022-09-09T09:57:22;6.70;;;2.30;;
12896;SDS011;6516;35.028;32.372;2022-09-09T10:00:00;5.15;;;2.13;;
12896;SDS011;6516;35.028;32.372;2022-09-09T10:02:38;11.13;;;2.58;;
12896;SDS011;6516;35.028;32.372;2022-09-09T10:05:13;6.38;;;2.30;;
12896;SDS011;6516;35.028;32.372;2022-09-09T10:07:43;8.10;;;2.30;;
12896;SDS011;6516;35.028;32.372;2022-09-09T10:10:12;5.20;;;2.22;;
12896;SDS011;6516;35.028;32.372;2022-09-09T10:12:51;6.38;;;2.30;;
12896;SDS011;6516;35.028;32.372;2022-09-09T10:15:31;7.88;;;2.42;;
12896;SDS011;6516;35.028;32.372;2022-09-09T10:18:12;6.57;;;2.22;;
12896;SDS011;6516;35.028;32.372;2022-09-09T10:20:54;5.43;;;2.13;;
12896;SDS011;6516;35.028;32.372;2022-09-09T10:23:36;4.82;;;1.92;;
12896;SDS011;6516;35.028;32.372;2022-09-09T10:26:26;7.97;;;2.30;;
12896;SDS011;6516;35.028;32.372;2022-09-09T10:29:10;7.05;;;2.20;;
12896;SDS011;6516;35.028;32.372;2022-09-09T10:32:08;9.77;;;2.40;;
12896;SDS011;6516;35.028;32.372;2022-09-09T10:35:02;5.40;;;2.10;;
12896;SDS011;6516;35.028;32.372;2022-09-09T10:37:41;6.00;;;2.22;;
12896;SDS011;6516;35.028;32.372;2022-09-09T10:40:38;6.40;;;2.10;;
12896;SDS011;6516;35.028;32.372;2022-09-09T10:43:16;6.03;;;2.38;;
12896;SDS011;6516;35.028;32.372;2022-09-09T10:46:02;4.88;;;2.00;;
12896;SDS011;6516;35.028;32.372;2022-09-09T10:48:38;5.10;;;1.90;;
12896;SDS011;6516;35.028;32.372;2022-09-09T10:51:25;5.47;;;2.03;;
12896;SDS011;6516;35.028;32.372;2022-09-09T10:54:06;6.57;;;2.40;;
12896;SDS011;6516;35.028;32.372;2022-09-09T10:56:51;5.45;;;2.20;;
12896;SDS011;6516;35.028;32.372;2022-09-09T10:59:25;5.00;;;2.28;;
12896;SDS011;6516;35.028;32.372;2022-09-09T11:01:57;6.87;;;2.40;;
12896;SDS011;6516;35.028;32.372;2022-09-09T11:04:34;6.45;;;2.50;;
12896;SDS011;6516;35.028;32.372;2022-09-09T11:07:10;4.97;;;2.17;;
12896;SDS011;6516;35.028;32.372;2022-09-09T11:09:42;4.70;;;2.20;;
12896;SDS011;6516;35.028;32.372;2022-09-09T11:12:18;6.13;;;2.08;;
12896;SDS011;6516;35.028;32.372;2022-09-09T11:14:48;4.20;;;1.90;;
12896;SDS011;6516;35.028;32.372;2022-09-09T11:17:22;5.80;;;2.20;;
12896;SDS011;6516;35.028;32.372;2022-09-09T11:19:53;5.90;;;2.20;;
12896;SDS011;6516;35.028;32.372;2022-09-09T11:22:25;5.57;;;2.10;;
12896;SDS011;6516;35.028;32.372;2022-09-09T11:24:58;8.25;;;2.25;;
12896;SDS011;6516;35.028;32.372;2022-09-09T11:27:35;4.30;;;2.20;;
12896;SDS011;6516;35.028;32.372;2022-09-09T11:30:15;9.32;;;2.42;;
12896;SDS011;6516;35.028;32.372;2022-09-09T11:32:51;6.65;;;2.10;;
12896;SDS011;6516;35.028;32.372;2022-09-09T11:39:13;6.20;;;2.30;;
12896;SDS011;6516;35.028;32.372;2022-09-09T11:42:07;5.47;;;2.13;;
12896;SDS011;6516;35.028;32.372;2022-09-09T11:44:43;7.13;;;2.20;;
12896;SDS011;6516;35.028;32.372;2022-09-09T11:47:21;6.55;;;2.40;;
12896;SDS011;6516;35.028;32.372;2022-09-09T11:49:51;6.07;;;2.22;;
12896;SDS011;6516;35.028;32.372;2022-09-09T11:52:24;5.38;;;2.20;;
12896;SDS011;6516;35.028;32.372;2022-09-09T11:55:09;6.10;;;2.20;;
12896;SDS011;6516;35.028;32.372;2022-09-09T11:57:47;5.47;;;2.20;;
12896;SDS011;6516;35.028;32.372;2022-09-09T12:00:28;5.55;;;2.33;;
12896;SDS011;6516;35.028;32.372;2022-09-09T12:03:02;6.47;;;2.40;;
12896;SDS011;6516;35.028;32.372;2022-09-09T12:05:37;6.57;;;2.38;;
12896;SDS011;6516;35.028;32.372;2022-09-09T12:08:09;6.43;;;2.40;;
12896;SDS011;6516;35.028;32.372;2022-09-09T12:10:52;5.90;;;2.40;;
12896;SDS011;6516;35.028;32.372;2022-09-09T12:13:23;8.13;;;2.45;;
12896;SDS011;6516;35.028;32.372;2022-09-09T12:15:53;4.85;;;2.30;;
12896;SDS011;6516;35.028;32.372;2022-09-09T12:18:22;5.75;;;2.30;;
12896;SDS011;6516;35.028;32.372;2022-09-09T12:20:54;5.47;;;2.10;;
12896;SDS011;6516;35.028;32.372;2022-09-09T12:23:32;5.97;;;2.13;;
12896;SDS011;6516;35.028;32.372;2022-09-09T12:29:02;7.28;;;2.70;;
12896;SDS011;6516;35.028;32.372;2022-09-09T12:31:43;5.28;;;2.58;;
12896;SDS011;6516;35.028;32.372;2022-09-09T12:34:19;6.53;;;2.60;;
12896;SDS011;6516;35.028;32.372;2022-09-09T12:37:02;7.60;;;2.40;;
12896;SDS011;6516;35.028;32.372;2022-09-09T12:39:37;5.95;;;2.45;;
12896;SDS011;6516;35.028;32.372;2022-09-09T12:42:17;7.88;;;2.78;;
12896;SDS011;6516;35.028;32.372;2022-09-09T12:44:53;5.28;;;2.47;;
12896;SDS011;6516;35.028;32.372;2022-09-09T12:47:23;6.07;;;2.27;;
12896;SDS011;6516;35.028;32.372;2022-09-09T12:50:14;5.45;;;2.45;;
12896;SDS011;6516;35.028;32.372;2022-09-09T12:52:46;4.72;;;2.50;;
12896;SDS011;6516;35.028;32.372;2022-09-09T12:55:18;6.88;;;2.75;;
12896;SDS011;6516;35.028;32.372;2022-09-09T12:57:51;6.50;;;2.90;;
12896;SDS011;6516;35.028;32.372;2022-09-09T13:00:20;5.17;;;2.80;;
12896;SDS011;6516;35.028;32.372;2022-09-09T13:02:50;7.00;;;2.63;;
12896;SDS011;6516;35.028;32.372;2022-09-09T13:05:22;7.53;;;3.20;;
12896;SDS011;6516;35.028;32.372;2022-09-09T13:07:51;6.45;;;2.70;;
12896;SDS011;6516;35.028;32.372;2022-09-09T13:10:28;6.82;;;3.28;;
12896;SDS011;6516;35.028;32.372;2022-09-09T13:13:01;5.73;;;2.73;;
12896;SDS011;6516;35.028;32.372;2022-09-09T13:15:30;8.05;;;3.10;;
12896;SDS011;6516;35.028;32.372;2022-09-09T13:18:00;6.70;;;3.15;;
12896;SDS011;6516;35.028;32.372;2022-09-09T13:20:38;7.82;;;3.13;;
12896;SDS011;6516;35.028;32.372;2022-09-09T13:23:08;6.38;;;3.13;;
12896;SDS011;6516;35.028;32.372;2022-09-09T13:25:39;7.40;;;3.33;;
12896;SDS011;6516;35.028;32.372;2022-09-09T13:28:20;7.68;;;3.25;;
12896;SDS011;6516;35.028;32.372;2022-09-09T13:30:58;5.10;;;3.03;;
12896;SDS011;6516;35.028;32.372;2022-09-09T13:33:34;6.85;;;3.20;;
12896;SDS011;6516;35.028;32.372;2022-09-09T13:36:04;5.68;;;3.40;;
12896;SDS011;6516;35.028;32.372;2022-09-09T13:38:35;6.87;;;3.57;;
12896;SDS011;6516;35.028;32.372;2022-09-09T13:41:05;6.43;;;3.50;;
12896;SDS011;6516;35.028;32.372;2022-09-09T13:43:37;6.53;;;3.58;;
12896;SDS011;6516;35.028;32.372;2022-09-09T13:46:22;6.75;;;3.50;;
12896;SDS011;6516;35.028;32.372;2022-09-09T13:48:58;6.55;;;3.42;;
12896;SDS011;6516;35.028;32.372;2022-09-09T13:51:35;7.43;;;3.63;;
12896;SDS011;6516;35.028;32.372;2022-09-09T13:54:05;8.73;;;3.75;;
12896;SDS011;6516;35.028;32.372;2022-09-09T13:56:36;6.80;;;3.90;;
12896;SDS011;6516;35.028;32.372;2022-09-09T13:59:09;6.38;;;4.43;;
12896;SDS011;6516;35.028;32.372;2022-09-09T14:01:39;7.43;;;3.95;;
12896;SDS011;6516;35.028;32.372;2022-09-09T14:04:07;7.63;;;4.20;;
12896;SDS011;6516;35.028;32.372;2022-09-09T14:06:36;6.93;;;3.78;;
12896;SDS011;6516;35.028;32.372;2022-09-09T14:09:05;9.25;;;4.03;;
12896;SDS011;6516;35.028;32.372;2022-09-09T14:11:36;7.47;;;3.90;;
12896;SDS011;6516;35.028;32.372;2022-09-09T14:14:06;8.25;;;4.38;;
12896;SDS011;6516;35.028;32.372;2022-09-09T14:16:34;7.13;;;3.50;;
12896;SDS011;6516;35.028;32.372;2022-09-09T14:19:03;8.65;;;4.30;;
12896;SDS011;6516;35.028;32.372;2022-09-09T14:21:32;8.82;;;4.15;;
12896;SDS011;6516;35.028;32.372;2022-09-09T14:24:00;6.60;;;3.80;;
12896;SDS011;6516;35.028;32.372;2022-09-09T14:26:28;6.85;;;3.85;;
12896;SDS011;6516;35.028;32.372;2022-09-09T14:28:55;6.20;;;3.57;;
12896;SDS011;6516;35.028;32.372;2022-09-09T14:31:25;8.18;;;4.00;;
12896;SDS011;6516;35.028;32.372;2022-09-09T14:33:53;7.30;;;4.18;;
12896;SDS011;6516;35.028;32.372;2022-09-09T14:36:21;8.13;;;4.22;;
12896;SDS011;6516;35.028;32.372;2022-09-09T14:38:49;7.45;;;3.92;;
12896;SDS011;6516;35.028;32.372;2022-09-09T14:41:18;8.17;;;4.13;;
12896;SDS011;6516;35.028;32.372;2022-09-09T14:43:47;6.72;;;4.40;;
12896;SDS011;6516;35.028;32.372;2022-09-09T14:46:17;7.85;;;4.30;;
12896;SDS011;6516;35.028;32.372;2022-09-09T14:48:48;8.73;;;3.78;;
12896;SDS011;6516;35.028;32.372;2022-09-09T14:51:17;7.93;;;4.43;;
12896;SDS011;6516;35.028;32.372;2022-09-09T14:53:47;9.07;;;4.00;;
12896;SDS011;6516;35.028;32.372;2022-09-09T14:56:18;7.32;;;4.22;;
12896;SDS011;6516;35.028;32.372;2022-09-09T14:58:49;9.75;;;4.25;;
12896;SDS011;6516;35.028;32.372;2022-09-09T15:01:18;7.53;;;4.60;;
12896;SDS011;6516;35.028;32.372;2022-09-09T15:03:50;8.60;;;4.40;;
12896;SDS011;6516;35.028;32.372;2022-09-09T15:06:19;7.37;;;4.30;;
12896;SDS011;6516;35.028;32.372;2022-09-09T15:08:49;8.20;;;4.95;;
12896;SDS011;6516;35.028;32.372;2022-09-09T15:11:19;8.15;;;4.95;;
12896;SDS011;6516;35.028;32.372;2022-09-09T15:13:50;9.63;;;4.57;;
12896;SDS011;6516;35.028;32.372;2022-09-09T15:16:20;8.23;;;4.90;;
12896;SDS011;6516;35.028;32.372;2022-09-09T15:18:52;7.10;;;4.80;;
12896;SDS011;6516;35.028;32.372;2022-09-09T15:21:22;8.60;;;5.22;;
12896;SDS011;6516;35.028;32.372;2022-09-09T15:23:52;7.78;;;4.70;;
12896;SDS011;6516;35.028;32.372;2022-09-09T15:26:19;10.65;;;5.22;;
12896;SDS011;6516;35.028;32.372;2022-09-09T15:28:48;8.30;;;5.10;;
12896;SDS011;6516;35.028;32.372;2022-09-09T15:31:17;7.77;;;5.30;;
12896;SDS011;6516;35.028;32.372;2022-09-09T15:33:47;7.60;;;5.20;;